createdAt,value
2022-09-28T00:11:34.177Z,1.1
2022-09-28T00:27:08.813Z,1.1
2022-09-28T00:42:43.313Z,1.6
2022-09-28T00:58:17.802Z,0.9
2022-09-28T01:13:52.284Z,0.9
2022-09-28T01:29:26.765Z,0.8
2022-09-28T01:45:01.339Z,1
2022-09-28T02:00:35.896Z,1
2022-09-28T02:16:10.827Z,0.7
2022-09-28T02:31:45.777Z,1.1
2022-09-28T02:47:20.611Z,1.1
2022-09-28T03:02:55.216Z,0.6
2022-09-28T03:18:29.706Z,0.8
2022-09-28T03:34:04.200Z,0.6
2022-09-28T03:49:38.670Z,0.6
2022-09-28T04:05:13.174Z,0.8
2022-09-28T04:20:47.679Z,0.6
2022-09-28T04:36:22.348Z,1
2022-09-28T04:51:56.856Z,0.9
2022-09-28T05:07:31.367Z,1.2
2022-09-28T05:23:05.855Z,1.3
2022-09-28T05:38:40.342Z,0.6
2022-09-28T05:54:14.993Z,1.1
2022-09-28T06:09:51.688Z,0.8
2022-09-28T06:25:26.195Z,1
2022-09-28T06:41:00.898Z,1.4
2022-09-28T06:56:35.865Z,1
2022-09-28T07:12:10.460Z,1.7
2022-09-28T07:27:45.079Z,1.1
2022-09-28T07:43:19.723Z,1.1
2022-09-28T07:58:54.390Z,1.6
2022-09-28T08:14:28.884Z,0.9
2022-09-28T08:30:03.347Z,1.1
2022-09-28T08:45:38.251Z,1
2022-09-28T09:01:12.958Z,1.4
2022-09-28T09:16:47.929Z,0.7
2022-09-28T09:32:22.671Z,1
2022-09-28T09:47:57.158Z,1.4
2022-09-28T10:03:31.838Z,0.5
2022-09-28T10:19:06.336Z,1
2022-09-28T10:34:41.003Z,0.5
2022-09-28T10:50:15.497Z,0.7
2022-09-28T11:05:50.102Z,0.5
2022-09-28T11:21:24.614Z,0.9
2022-09-28T11:37:01.659Z,0.6
2022-09-28T11:52:36.415Z,0.8
2022-09-28T12:08:11.016Z,0.8
2022-09-28T12:23:45.770Z,0.5
2022-09-28T12:39:56.855Z,0.5
2022-09-28T12:55:34.089Z,0.6
2022-09-28T13:11:08.595Z,0.8
2022-09-28T13:26:43.119Z,0.6
2022-09-28T13:42:17.611Z,0.9
2022-09-28T13:57:52.101Z,0.7
2022-09-28T14:13:29.869Z,0.8
2022-09-28T14:29:07.022Z,1
2022-09-28T14:44:53.961Z,0.5
2022-09-28T14:54:07.828Z,0.7
2022-09-28T15:09:42.014Z,0.7
2022-09-28T15:25:16.543Z,0.9
2022-09-28T15:40:51.315Z,0.9
2022-09-28T15:56:26.369Z,1.3
2022-09-28T16:12:15.668Z,1.5
2022-09-28T16:27:50.367Z,1.4
2022-09-28T16:43:25.223Z,1.7
2022-09-28T16:59:00.246Z,1.4
2022-09-28T17:14:34.872Z,1.9
2022-09-28T17:30:09.609Z,1.5
2022-09-28T17:45:44.251Z,1.8
2022-09-28T18:01:18.962Z,1.3
2022-09-28T18:33:12.982Z,2.2
2022-09-28T18:48:47.921Z,2.2
2022-09-28T19:04:22.740Z,1.3
2022-09-28T19:19:57.603Z,2
2022-09-28T19:35:32.301Z,2.4
2022-09-28T19:51:07.376Z,1.7
2022-09-28T20:06:43.235Z,2.5
2022-09-28T20:22:32.578Z,2.2
2022-09-28T20:38:07.439Z,1.8
2022-09-28T20:53:42.313Z,1.3
2022-09-28T21:09:31.634Z,1.6
2022-09-28T21:25:06.188Z,1.5
2022-09-28T21:40:40.993Z,2.5
2022-09-28T21:56:15.864Z,1.7
2022-09-28T22:11:50.492Z,1.6
2022-09-28T22:27:25.026Z,1.3
2022-09-28T22:42:59.633Z,1
2022-09-28T22:58:34.236Z,2.9
2022-09-28T23:14:08.797Z,1.8
2022-09-28T23:29:43.427Z,1.8
2022-09-28T23:45:18.004Z,1.7
